Time;durP1;ratioP1;P1;durP2;ratioP2;P2;SDS_P1;SDS_P2;PMS_P1;PMS_P2;Temp;Humidity;BMP_temperature;BMP_pressure;BME280_temperature;BME280_humidity;BME280_pressure;Samples;Min_cycle;Max_cycle;Signal;HPM_P1;HPM_P2
2022/01/22 03:45:29;;;;;;;3.65;2.10;;;3.30;99.40;;;;;;5596881;24;20067;-79
2022/01/22 03:47:56;;;;;;;2.53;1.88;;;3.40;99.30;;;;;;4783673;30;20042;-79
2022/01/22 03:50:22;;;;;;;3.30;2.20;;;3.40;99.30;;;;;;4768772;30;20039;-79
2022/01/22 03:52:49;;;;;;;;;;;3.40;99.30;;;;;;4784428;30;20041;-78
2022/01/22 03:58:18;;;;;;;2.92;1.70;;;3.40;99.90;;;;;;4799022;30;20046;-79
2022/01/22 04:00:52;;;;;;;2.97;1.92;;;3.30;99.90;;;;;;4798427;30;20031;-79
2022/01/22 04:03:31;;;;;;;6.88;2.30;;;3.30;99.90;;;;;;4784116;30;20039;-79
2022/01/22 04:08:44;;;;;;;5.07;1.90;;;3.40;99.90;;;;;;4714676;30;20048;-80
2022/01/22 04:11:14;;;;;;;9.02;2.90;;;3.40;99.90;;;;;;4697996;30;20336;-79
2022/01/22 04:13:40;;;;;;;3.10;1.70;;;3.40;99.90;;;;;;4698511;30;20041;-79
2022/01/22 04:16:07;;;;;;;5.80;1.83;;;3.40;99.90;;;;;;4712198;30;20064;-79
2022/01/22 04:29:25;;;;;;;6.50;1.85;;;3.30;99.90;;;;;;4713152;30;20626;-80
2022/01/22 04:31:53;;;;;;;2.00;1.50;;;3.40;99.90;;;;;;4697549;30;20033;-79
2022/01/22 04:34:19;;;;;;;3.53;1.60;;;3.40;99.90;;;;;;4712121;30;20033;-79
2022/01/22 04:36:45;;;;;;;2.85;1.42;;;3.40;99.90;;;;;;4697681;30;20037;-79
2022/01/22 04:39:11;;;;;;;4.03;1.20;;;3.40;99.90;;;;;;4697495;30;20061;-79
2022/01/22 04:41:37;;;;;;;4.63;1.63;;;3.40;99.90;;;;;;4726402;30;20407;-79
2022/01/22 04:44:06;;;;;;;8.35;1.85;;;3.40;99.90;;;;;;4697611;30;20029;-80
2022/01/22 04:49:10;;;;;;;2.47;1.42;;;3.40;99.90;;;;;;4779706;30;20031;-79
2022/01/22 04:57:07;;;;;;;3.65;1.70;;;3.50;99.90;;;;;;4754713;30;20028;-80
2022/01/22 04:59:35;;;;;;;2.42;1.30;;;3.50;99.90;;;;;;4749985;30;20090;-80
2022/01/22 05:02:01;;;;;;;5.82;1.23;;;3.50;99.90;;;;;;4779057;30;20043;-79
2022/01/22 05:04:50;;;;;;;2.30;1.23;;;3.50;99.90;;;;;;4726029;30;20041;-78
2022/01/22 05:07:24;;;;;;;3.17;1.55;;;3.60;99.90;;;;;;4712627;30;20112;-81
2022/01/22 05:10:10;;;;;;;2.30;1.60;;;3.60;99.90;;;;;;4725909;30;20355;-81
2022/01/22 05:12:36;;;;;;;2.78;1.80;;;3.70;99.90;;;;;;4697088;30;20029;-81
2022/01/22 05:15:03;;;;;;;1.67;1.17;;;3.70;99.90;;;;;;4711511;30;20056;-81
2022/01/22 05:17:31;;;;;;;1.45;1.05;;;3.80;99.90;;;;;;4711091;30;20035;-81
2022/01/22 05:20:12;;;;;;;2.90;1.20;;;3.70;99.90;;;;;;4673120;30;20304;-81
2022/01/22 05:22:55;;;;;;;1.52;1.30;;;3.70;99.90;;;;;;4698602;30;20108;-81
2022/01/22 05:25:37;;;;;;;1.67;1.58;;;3.70;99.90;;;;;;4711204;30;20064;-81
2022/01/22 05:38:55;;;;;;;4.82;1.40;;;3.60;99.90;;;;;;4695652;30;20324;-81
2022/01/22 05:41:21;;;;;;;1.65;1.30;;;3.50;99.90;;;;;;4696460;30;20044;-81
2022/01/22 05:43:47;;;;;;;3.08;2.13;;;3.60;99.90;;;;;;4743502;30;20104;-81
2022/01/22 05:46:13;;;;;;;3.55;1.88;;;3.60;99.90;;;;;;4778852;30;20167;-80
2022/01/22 05:48:40;;;;;;;;;;;3.70;99.90;;;;;;4735865;30;20040;-80
2022/01/22 05:51:07;;;;;;;3.83;1.57;;;3.80;99.90;;;;;;4764021;30;19933;-81
2022/01/22 06:01:40;;;;;;;;;;;3.70;99.90;;;;;;4767289;30;20051;-82
2022/01/22 06:04:13;;;;;;;1.80;1.25;;;3.70;99.90;;;;;;4765262;30;19981;-83
2022/01/22 06:06:39;;;;;;;1.35;1.25;;;3.60;99.90;;;;;;4764064;30;20095;-84
2022/01/22 06:09:09;;;;;;;1.85;1.25;;;3.60;99.90;;;;;;4749878;30;20035;-83
2022/01/22 06:11:52;;;;;;;2.92;1.40;;;3.60;99.90;;;;;;4735395;30;20027;-83
2022/01/22 06:14:18;;;;;;;2.15;1.30;;;3.70;99.90;;;;;;4778706;30;20039;-83
2022/01/22 06:16:47;;;;;;;2.55;1.65;;;3.70;99.90;;;;;;4778437;30;20035;-83
2022/01/22 06:19:51;;;;;;;2.90;1.67;;;3.80;99.90;;;;;;4725253;30;20045;-83
2022/01/22 06:22:17;;;;;;;2.80;1.20;;;3.80;99.90;;;;;;4710525;30;20047;-82
2022/01/22 06:24:43;;;;;;;2.28;1.60;;;3.80;99.90;;;;;;4710598;30;20052;-83
2022/01/22 06:27:10;;;;;;;2.17;1.27;;;3.80;99.90;;;;;;4710461;30;20037;-82
2022/01/22 06:29:36;;;;;;;6.15;1.63;;;3.80;99.90;;;;;;4696096;30;20055;-82
2022/01/22 06:32:03;;;;;;;4.20;1.85;;;3.70;99.90;;;;;;4710478;30;20041;-82
2022/01/22 06:34:33;;;;;;;2.70;1.65;;;3.70;99.90;;;;;;4710827;30;20033;-82
2022/01/22 06:36:59;;;;;;;2.42;1.80;;;3.70;99.90;;;;;;4710537;30;20037;-82
2022/01/22 06:39:27;;;;;;;2.83;2.13;;;3.80;99.90;;;;;;4696279;30;20037;-83
2022/01/22 06:42:02;;;;;;;4.95;2.03;;;3.80;99.90;;;;;;4711871;30;20045;-82
2022/01/22 06:44:46;;;;;;;3.10;2.17;;;3.80;99.90;;;;;;4683506;30;20295;-82
2022/01/22 06:47:32;;;;;;;4.60;3.78;;;3.80;99.90;;;;;;4721705;30;20128;-83
2022/01/22 06:50:07;;;;;;;4.85;2.83;;;3.80;99.90;;;;;;4704235;30;20323;-82
2022/01/22 06:52:42;;;;;;;6.88;2.78;;;3.80;99.90;;;;;;4743188;30;20131;-83
2022/01/22 06:55:19;;;;;;;4.88;2.92;;;3.70;99.90;;;;;;4702624;30;20044;-83
2022/01/22 06:57:45;;;;;;;7.47;3.33;;;3.70;99.90;;;;;;4704311;30;20070;-83
2022/01/22 07:00:18;;;;;;;4.88;2.90;;;3.60;99.90;;;;;;4732100;30;20036;-83
2022/01/22 07:02:56;;;;;;;3.08;2.28;;;3.60;99.90;;;;;;4733240;30;20102;-82
2022/01/22 07:05:22;;;;;;;3.30;2.03;;;3.70;99.90;;;;;;4715947;30;20063;-83
2022/01/22 07:08:11;;;;;;;2.85;2.53;;;3.80;99.90;;;;;;4727436;30;20122;-83
2022/01/22 07:10:41;;;;;;;5.22;2.85;;;3.80;99.90;;;;;;4745845;30;20031;-83
2022/01/22 07:13:06;;;;;;;3.55;2.35;;;3.90;99.90;;;;;;4728847;30;20040;-82
2022/01/22 07:15:33;;;;;;;3.97;2.40;;;3.90;99.90;;;;;;4732273;30;20033;-84
2022/01/22 07:18:08;;;;;;;4.07;2.22;;;3.90;99.90;;;;;;4707790;30;20043;-83
2022/01/22 07:20:38;;;;;;;3.38;2.90;;;3.90;99.90;;;;;;4724691;30;20052;-82
2022/01/22 07:23:16;;;;;;;3.38;2.80;;;3.90;99.90;;;;;;4725439;30;20563;-82
2022/01/22 07:25:49;;;;;;;4.35;2.58;;;4.00;99.90;;;;;;4706445;30;20040;-83
2022/01/22 07:28:28;;;;;;;2.88;2.40;;;4.00;99.90;;;;;;4730305;30;20060;-82
2022/01/22 07:30:53;;;;;;;4.75;2.58;;;4.00;99.90;;;;;;4698562;30;20032;-83
2022/01/22 07:33:22;;;;;;;5.28;2.85;;;4.10;99.90;;;;;;4752789;30;20029;-83
2022/01/22 07:35:49;;;;;;;3.95;2.65;;;4.10;99.90;;;;;;4742081;30;20044;-83
2022/01/22 07:38:15;;;;;;;3.10;2.30;;;4.10;99.90;;;;;;4749115;30;20059;-82
2022/01/22 07:40:41;;;;;;;4.97;2.90;;;4.20;99.90;;;;;;4725625;30;20268;-82
2022/01/22 07:43:18;;;;;;;4.22;2.58;;;4.20;99.90;;;;;;4715804;30;20087;-82
2022/01/22 07:46:02;;;;;;;4.38;2.53;;;4.30;99.90;;;;;;4740441;30;20105;-82
2022/01/22 07:48:31;;;;;;;4.47;2.60;;;4.30;99.90;;;;;;4749235;30;20111;-82
2022/01/22 07:51:17;;;;;;;3.63;2.88;;;4.40;99.90;;;;;;4773896;30;20035;-82
2022/01/22 07:53:45;;;;;;;7.22;2.80;;;4.40;99.90;;;;;;4774626;30;20028;-82
2022/01/22 07:56:16;;;;;;;6.25;2.78;;;4.50;99.90;;;;;;4762071;30;20031;-81
2022/01/22 07:58:43;;;;;;;3.90;2.40;;;4.50;99.90;;;;;;4785160;30;20032;-81
2022/01/22 08:01:12;;;;;;;3.53;2.22;;;4.50;99.90;;;;;;4746523;30;20039;-81
2022/01/22 08:03:57;;;;;;;4.05;2.10;;;4.60;99.90;;;;;;4752474;30;20231;-82
2022/01/22 08:06:53;;;;;;;3.55;2.38;;;4.60;99.90;;;;;;4721047;30;20107;-82
2022/01/22 08:09:29;;;;;;;2.78;2.17;;;4.60;99.90;;;;;;4711366;30;20241;-82
2022/01/22 08:11:59;;;;;;;2.70;2.20;;;4.60;99.90;;;;;;4718613;30;20178;-82
2022/01/22 08:14:26;;;;;;;3.03;2.00;;;4.70;99.90;;;;;;4709335;30;20044;-82
2022/01/22 08:16:51;;;;;;;3.53;2.37;;;4.70;99.90;;;;;;4719993;30;20298;-81
2022/01/22 08:19:31;;;;;;;4.40;2.28;;;4.70;99.90;;;;;;4707043;30;20041;-82
2022/01/22 08:22:00;;;;;;;3.78;2.50;;;4.80;99.90;;;;;;4700050;30;20075;-82
2022/01/22 08:24:45;;;;;;;3.83;2.22;;;4.90;99.90;;;;;;4709574;30;20142;-82
2022/01/22 08:27:31;;;;;;;7.78;2.60;;;4.90;99.90;;;;;;4697031;30;20276;-81
2022/01/22 08:29:57;;;;;;;3.47;2.10;;;5.00;99.90;;;;;;4720311;30;20045;-83
2022/01/22 08:37:35;;;;;;;7.53;2.20;;;5.00;99.90;;;;;;4729993;30;20055;-82
2022/01/22 08:40:04;;;;;;;4.53;2.03;;;5.10;99.90;;;;;;4710987;30;20037;-82
2022/01/22 08:42:30;;;;;;;8.27;2.20;;;5.10;99.90;;;;;;4744476;30;20042;-82
2022/01/22 08:44:55;;;;;;;4.82;2.13;;;5.10;99.90;;;;;;4730023;30;20331;-83
2022/01/22 08:47:21;;;;;;;3.10;2.05;;;5.20;99.90;;;;;;4761845;30;20062;-83
2022/01/22 08:49:47;;;;;;;4.55;1.60;;;5.30;99.90;;;;;;4757534;30;20063;-83
2022/01/22 08:52:16;;;;;;;5.35;1.77;;;5.30;99.90;;;;;;4784167;30;20231;-82
2022/01/22 08:54:45;;;;;;;1.85;1.50;;;5.40;99.90;;;;;;4803239;29;20286;-83
2022/01/22 08:57:14;;;;;;;3.10;1.98;;;5.40;99.90;;;;;;4799608;29;20034;-83
2022/01/22 09:00:00;;;;;;;6.70;1.85;;;5.40;99.90;;;;;;4771621;30;20043;-83
2022/01/22 09:02:27;;;;;;;2.90;1.70;;;5.50;99.90;;;;;;4748207;30;20569;-82
2022/01/22 09:05:15;;;;;;;3.72;2.17;;;5.50;99.90;;;;;;4761876;30;20116;-83
2022/01/22 09:08:05;;;;;;;2.28;1.60;;;5.60;99.90;;;;;;4771579;30;20035;-83
2022/01/22 09:11:00;;;;;;;;;;;5.60;99.90;;;;;;4724130;30;20357;-82
2022/01/22 09:13:44;;;;;;;3.88;1.83;;;5.60;99.90;;;;;;4712685;30;20107;-82
2022/01/22 09:16:10;;;;;;;2.90;2.05;;;5.70;99.90;;;;;;4724133;30;20036;-83
2022/01/22 09:18:36;;;;;;;3.25;1.80;;;5.70;99.90;;;;;;4730041;30;20116;-83
2022/01/22 09:21:04;;;;;;;4.05;2.08;;;5.90;99.90;;;;;;4715745;30;20363;-83
2022/01/22 09:23:35;;;;;;;4.40;2.22;;;5.90;99.20;;;;;;4714566;30;20065;-84
2022/01/22 09:26:05;;;;;;;2.72;1.67;;;6.00;99.10;;;;;;4730061;30;20336;-83
2022/01/22 09:28:34;;;;;;;3.63;2.25;;;6.10;99.00;;;;;;4724739;30;20368;-84
2022/01/22 09:31:00;;;;;;;3.50;1.92;;;6.20;99.00;;;;;;4712945;30;20135;-84
2022/01/22 09:33:26;;;;;;;2.80;1.70;;;6.30;98.60;;;;;;4693565;30;20037;-83
2022/01/22 09:36:12;;;;;;;2.33;1.50;;;6.60;98.60;;;;;;4703311;30;20088;-83
2022/01/22 09:38:57;;;;;;;2.67;1.60;;;6.70;97.60;;;;;;4707176;30;20072;-83
2022/01/22 09:41:34;;;;;;;2.38;1.55;;;6.70;96.60;;;;;;4692886;30;20048;-83
2022/01/22 09:44:12;;;;;;;2.40;1.40;;;6.60;96.80;;;;;;4693049;30;20047;-83
2022/01/22 09:46:40;;;;;;;2.45;1.48;;;6.60;96.90;;;;;;4710110;30;20106;-83
2022/01/22 09:49:30;;;;;;;3.22;1.80;;;6.50;96.10;;;;;;4721387;30;20041;-83
2022/01/22 09:52:15;;;;;;;2.97;1.30;;;6.60;96.00;;;;;;4724716;30;20056;-83
2022/01/22 09:54:41;;;;;;;3.45;1.83;;;6.60;95.30;;;;;;4709866;30;20029;-82
2022/01/22 09:57:37;;;;;;;3.40;1.58;;;6.60;95.10;;;;;;4710097;30;20040;-82
2022/01/22 10:00:27;;;;;;;3.90;1.67;;;6.60;95.90;;;;;;4698716;30;20074;-82
2022/01/22 10:02:59;;;;;;;2.13;1.50;;;6.60;96.30;;;;;;4696381;30;20239;-82
2022/01/22 10:05:47;;;;;;;3.35;2.00;;;6.70;96.50;;;;;;4716505;30;20056;-82
2022/01/22 10:08:31;;;;;;;2.92;1.85;;;6.70;96.30;;;;;;4707262;30;20316;-82
2022/01/22 10:11:26;;;;;;;5.28;2.28;;;6.70;96.50;;;;;;4717346;30;20106;-82
2022/01/22 10:14:11;;;;;;;5.95;2.55;;;6.60;96.20;;;;;;4721018;30;20794;-82
2022/01/22 10:16:39;;;;;;;4.45;2.40;;;6.60;96.30;;;;;;4709264;30;20029;-82
2022/01/22 10:19:23;;;;;;;5.07;2.67;;;6.70;96.40;;;;;;4709606;30;20084;-82
2022/01/22 10:21:53;;;;;;;4.95;2.13;;;6.70;96.10;;;;;;4709912;30;20060;-82
2022/01/22 10:24:35;;;;;;;6.63;3.03;;;6.70;95.50;;;;;;4709815;30;20096;-82
2022/01/22 10:27:45;;;;;;;6.40;2.42;;;6.70;94.00;;;;;;4740381;30;20059;-82
2022/01/22 10:30:16;;;;;;;5.03;2.40;;;6.70;94.50;;;;;;4777533;30;20058;-82
2022/01/22 10:35:39;;;;;;;3.63;2.10;;;6.60;94.40;;;;;;4730129;30;20049;-82
2022/01/22 10:38:24;;;;;;;2.25;1.35;;;6.60;93.60;;;;;;4742028;30;20051;-82
2022/01/22 10:40:56;;;;;;;2.70;1.92;;;6.50;92.90;;;;;;4741285;30;20372;-82
2022/01/22 10:43:31;;;;;;;3.63;2.00;;;6.40;92.20;;;;;;4740386;30;20252;-81
2022/01/22 10:49:05;;;;;;;9.80;1.70;;;6.40;91.90;;;;;;4740875;30;20048;-81
2022/01/22 10:51:42;;;;;;;3.30;1.65;;;6.40;91.80;;;;;;4744197;30;20036;-81
2022/01/22 10:54:11;;;;;;;3.72;1.42;;;6.60;92.20;;;;;;4713175;30;20097;-82
2022/01/22 10:56:41;;;;;;;5.78;1.42;;;6.80;91.20;;;;;;4744011;30;20036;-82
2022/01/22 10:59:14;;;;;;;4.15;1.67;;;6.90;91.20;;;;;;4713793;30;20053;-82
2022/01/22 11:01:56;;;;;;;3.42;1.50;;;6.90;91.40;;;;;;4747658;30;20056;-81
2022/01/22 11:04:40;;;;;;;4.05;2.20;;;6.90;91.00;;;;;;4729434;30;20039;-82
2022/01/22 11:07:08;;;;;;;2.95;1.70;;;7.00;90.40;;;;;;4745041;30;20073;-83
2022/01/22 11:09:35;;;;;;;2.03;1.55;;;7.00;89.10;;;;;;4729283;30;20052;-83
2022/01/22 11:12:04;;;;;;;6.95;1.48;;;7.00;88.30;;;;;;4732404;30;20044;-83
2022/01/22 11:14:32;;;;;;;2.63;1.77;;;6.90;87.30;;;;;;4780191;30;20028;-83
2022/01/22 11:16:59;;;;;;;2.67;1.35;;;6.90;87.70;;;;;;4781642;30;20028;-83
2022/01/22 11:19:33;;;;;;;4.25;2.13;;;6.80;86.50;;;;;;4780950;30;20216;-83
2022/01/22 11:22:19;;;;;;;4.10;1.50;;;6.70;87.20;;;;;;4776806;30;20051;-83
2022/01/22 11:24:51;;;;;;;2.00;1.15;;;6.60;86.30;;;;;;4772843;30;20036;-83
2022/01/22 11:27:21;;;;;;;2.83;1.10;;;6.50;84.90;;;;;;4749993;30;20297;-83
2022/01/22 11:29:54;;;;;;;3.38;1.20;;;6.30;87.80;;;;;;4779960;30;20047;-83
2022/01/22 11:32:27;;;;;;;1.58;0.98;;;5.80;90.50;;;;;;4761489;30;20030;-83
2022/01/22 11:34:57;;;;;;;2.75;1.17;;;5.40;91.40;;;;;;4779892;30;20138;-83
2022/01/22 11:37:57;;;;;;;3.80;1.15;;;5.00;92.20;;;;;;4779918;30;20035;-83
2022/01/22 11:40:27;;;;;;;2.10;1.02;;;4.80;93.50;;;;;;4711575;30;20041;-83
2022/01/22 11:43:13;;;;;;;2.95;1.60;;;4.60;94.00;;;;;;4699100;30;20065;-83
2022/01/22 11:45:44;;;;;;;2.65;1.58;;;4.40;94.50;;;;;;4704688;30;20056;-83
2022/01/22 11:48:10;;;;;;;4.20;1.75;;;4.30;95.30;;;;;;4711566;30;20041;-83
2022/01/22 11:50:37;;;;;;;2.08;1.50;;;4.10;96.10;;;;;;4708437;30;20065;-83
2022/01/22 11:53:21;;;;;;;2.63;1.83;;;4.10;96.30;;;;;;4694410;30;20224;-83
2022/01/22 11:56:11;;;;;;;4.30;1.95;;;3.90;96.80;;;;;;4710140;30;20332;-83
2022/01/22 11:58:55;;;;;;;6.22;2.30;;;3.90;97.40;;;;;;4715268;30;20037;-83
2022/01/22 12:01:50;;;;;;;8.40;1.95;;;3.90;97.50;;;;;;4705838;30;20029;-83
2022/01/22 12:04:18;;;;;;;8.40;2.10;;;3.90;97.60;;;;;;4723266;30;20135;-83
2022/01/22 12:07:02;;;;;;;3.33;1.77;;;4.00;97.30;;;;;;4708311;30;20047;-83
2022/01/22 12:15:15;;;;;;;2.90;1.83;;;4.30;96.20;;;;;;4669985;30;20075;-83
2022/01/22 12:18:00;;;;;;;3.53;1.77;;;4.30;95.80;;;;;;4711638;30;20037;-83
2022/01/22 12:23:07;;;;;;;3.97;1.83;;;4.30;95.60;;;;;;4726531;30;20069;-83
2022/01/22 12:25:35;;;;;;;4.07;1.92;;;4.30;95.70;;;;;;4708226;30;20049;-83
2022/01/22 12:28:03;;;;;;;3.05;1.98;;;4.40;95.80;;;;;;4719553;30;20111;-83
2022/01/22 12:30:36;;;;;;;4.30;2.13;;;4.50;95.40;;;;;;4714059;30;20065;-83
2022/01/22 12:33:05;;;;;;;2.83;1.80;;;4.40;95.20;;;;;;4710378;30;20086;-83
2022/01/22 12:35:37;;;;;;;2.15;1.50;;;4.40;95.40;;;;;;4710275;30;20037;-84
2022/01/22 12:38:49;;;;;;;3.65;2.05;;;4.40;95.40;;;;;;4727838;30;20107;-81
2022/01/22 12:44:00;;;;;;;5.43;2.22;;;4.20;95.80;;;;;;4731007;30;20049;-82
2022/01/22 12:46:28;;;;;;;5.60;2.45;;;4.20;95.50;;;;;;4699647;30;20065;-81
2022/01/22 12:48:56;;;;;;;5.72;2.10;;;4.20;95.20;;;;;;4743070;30;20074;-82
2022/01/22 12:51:25;;;;;;;3.47;2.22;;;4.20;94.50;;;;;;4774036;30;20243;-83
2022/01/22 12:53:52;;;;;;;3.45;1.88;;;4.10;95.00;;;;;;4760419;30;20036;-83
2022/01/22 12:59:03;;;;;;;3.95;2.25;;;3.90;97.10;;;;;;4764409;30;20039;-82
2022/01/22 13:01:31;;;;;;;5.38;2.72;;;3.80;97.90;;;;;;4780437;30;20199;-82
2022/01/22 13:03:58;;;;;;;5.10;3.10;;;3.70;97.90;;;;;;4774156;30;20043;-83
2022/01/22 13:06:48;;;;;;;5.25;2.97;;;3.80;97.50;;;;;;4730824;30;20306;-83
2022/01/22 13:09:49;;;;;;;4.93;2.50;;;4.00;97.10;;;;;;4773147;30;20056;-84
2022/01/22 13:12:16;;;;;;;4.50;2.67;;;4.00;95.70;;;;;;4740132;30;20073;-84
2022/01/22 13:14:42;;;;;;;;;;;4.10;96.20;;;;;;4783562;29;20155;-84
2022/01/22 13:17:13;;;;;;;4.80;2.42;;;4.10;95.20;;;;;;4772259;30;19940;-84
2022/01/22 13:19:39;;;;;;;6.93;2.83;;;4.10;95.00;;;;;;4752429;30;20035;-84
2022/01/22 13:22:06;;;;;;;4.70;2.78;;;4.10;94.80;;;;;;4775979;30;20346;-82
2022/01/22 13:24:32;;;;;;;3.85;2.40;;;4.10;95.00;;;;;;4776186;30;20042;-83
2022/01/22 13:27:08;;;;;;;3.97;2.23;;;4.20;94.70;;;;;;4762902;30;20107;-81
2022/01/22 13:29:41;;;;;;;5.07;2.27;;;4.20;94.50;;;;;;4778573;30;20299;-82
2022/01/22 13:32:14;;;;;;;5.13;2.40;;;4.20;94.40;;;;;;4778060;30;20046;-82
2022/01/22 13:38:18;;;;;;;5.13;2.70;;;4.30;94.10;;;;;;4770626;30;20047;-81
2022/01/22 13:49:19;;;;;;;6.28;2.45;;;4.50;92.80;;;;;;4774949;30;20037;-82
2022/01/22 13:51:47;;;;;;;5.15;2.35;;;4.50;92.50;;;;;;4781636;30;20027;-82
2022/01/22 13:54:14;;;;;;;5.63;2.50;;;4.70;92.80;;;;;;4775633;30;20036;-82
2022/01/22 13:56:56;;;;;;;9.43;2.13;;;4.70;92.50;;;;;;4774068;30;20034;-82
2022/01/22 13:59:52;;;;;;;4.18;2.42;;;4.80;92.40;;;;;;4795489;29;20276;-82
2022/01/22 14:02:50;;;;;;;6.07;1.85;;;4.80;92.00;;;;;;4794201;29;20040;-82
2022/01/22 14:05:16;;;;;;;4.75;2.10;;;4.90;92.10;;;;;;4770310;30;20047;-82
2022/01/22 14:07:48;;;;;;;5.13;2.28;;;4.90;91.70;;;;;;4776897;30;20208;-82
2022/01/22 14:10:22;;;;;;;7.90;2.90;;;5.00;91.70;;;;;;4756811;30;20040;-81
2022/01/22 14:12:52;;;;;;;5.10;2.50;;;5.00;91.50;;;;;;4778400;30;20196;-81
2022/01/22 14:15:44;;;;;;;5.22;2.13;;;5.00;90.80;;;;;;4778929;30;20038;-81
2022/01/22 14:18:22;;;;;;;4.75;2.58;;;5.00;90.70;;;;;;4747748;30;20209;-81
2022/01/22 14:20:52;;;;;;;5.13;2.25;;;5.00;90.70;;;;;;4779188;30;20116;-81
2022/01/22 14:23:24;;;;;;;4.05;2.10;;;5.00;90.10;;;;;;4774825;30;20263;-81
2022/01/22 14:25:56;;;;;;;6.82;2.35;;;5.00;90.10;;;;;;4760223;30;20124;-81
2022/01/22 14:28:42;;;;;;;6.03;2.47;;;5.00;90.30;;;;;;4775730;30;20036;-82
2022/01/22 14:31:18;;;;;;;3.10;1.85;;;5.00;90.40;;;;;;4794661;29;20040;-81
2022/01/22 14:33:44;;;;;;;5.30;2.42;;;5.00;90.00;;;;;;4777372;30;20073;-82
2022/01/22 14:36:18;;;;;;;5.25;2.22;;;5.00;90.10;;;;;;4745125;30;20031;-82
2022/01/22 14:44:18;;;;;;;5.40;1.90;;;4.90;90.20;;;;;;4777595;30;20049;-83
2022/01/22 14:46:52;;;;;;;;;;;4.90;90.30;;;;;;4777263;30;20055;-82
2022/01/22 14:49:30;;;;;;;4.90;2.55;;;4.90;90.20;;;;;;4779184;30;19916;-82
2022/01/22 14:51:57;;;;;;;2.65;1.85;;;4.90;90.50;;;;;;4769190;30;20023;-81
2022/01/22 14:54:24;;;;;;;5.47;3.30;;;4.90;90.30;;;;;;4780902;30;20226;-83
2022/01/22 14:56:50;;;;;;;26.20;11.75;;;4.90;90.10;;;;;;4763260;30;20235;-83
2022/01/22 14:59:15;;;;;;;25.17;12.13;;;4.90;89.70;;;;;;4777143;30;20236;-83
2022/01/22 15:01:41;;;;;;;22.52;10.55;;;4.80;89.20;;;;;;4747789;30;20031;-83
2022/01/22 15:04:07;;;;;;;21.50;10.98;;;4.80;88.70;;;;;;4747978;30;20034;-83
2022/01/22 15:06:33;;;;;;;5.05;3.67;;;4.80;89.10;;;;;;4748260;30;20048;-83
2022/01/22 15:08:59;;;;;;;10.52;2.95;;;4.70;88.50;;;;;;4748239;30;20028;-83
2022/01/22 15:11:25;;;;;;;4.05;2.67;;;4.70;88.40;;;;;;4728129;30;20036;-83
2022/01/22 15:13:50;;;;;;;5.00;2.45;;;4.70;88.00;;;;;;4754115;30;20031;-82
2022/01/22 15:16:18;;;;;;;4.22;2.60;;;4.60;88.00;;;;;;4747538;30;20317;-83
2022/01/22 15:21:11;;;;;;;4.33;2.33;;;4.50;87.20;;;;;;4783940;29;20043;-83
2022/01/22 15:23:42;;;;;;;5.80;2.63;;;4.50;87.40;;;;;;4786087;30;20106;-83
2022/01/22 15:26:08;;;;;;;5.15;2.78;;;4.50;87.30;;;;;;4772672;30;20036;-83
2022/01/22 15:28:44;;;;;;;2.80;2.25;;;4.50;87.30;;;;;;4747739;30;20103;-83
2022/01/22 15:31:30;;;;;;;6.65;2.42;;;4.40;87.40;;;;;;4780351;30;20066;-83
2022/01/22 15:34:15;;;;;;;6.30;2.83;;;4.40;87.30;;;;;;4750885;30;20205;-83
2022/01/22 15:36:46;;;;;;;4.95;2.75;;;4.40;88.40;;;;;;4765334;30;20339;-83
2022/01/22 15:39:12;;;;;;;5.38;2.67;;;4.30;87.90;;;;;;4779876;30;20146;-82
2022/01/22 15:41:39;;;;;;;4.97;3.10;;;4.30;88.50;;;;;;4756958;30;20059;-83
2022/01/22 15:44:09;;;;;;;5.68;2.90;;;4.20;88.70;;;;;;4746581;30;20403;-83
2022/01/22 15:46:41;;;;;;;4.95;2.72;;;4.20;88.50;;;;;;4779335;30;20351;-83
2022/01/22 15:49:15;;;;;;;7.25;3.03;;;4.20;88.70;;;;;;4761741;30;20036;-82
2022/01/22 15:51:42;;;;;;;4.15;2.75;;;4.10;88.70;;;;;;4762503;30;20230;-82
2022/01/22 15:54:08;;;;;;;;;;;4.10;89.20;;;;;;4746639;30;20043;-82
2022/01/22 15:56:36;;;;;;;5.80;2.90;;;4.10;89.10;;;;;;4779825;30;19929;-82
2022/01/22 15:59:06;;;;;;;5.15;2.63;;;4.00;88.80;;;;;;4747711;30;20040;-83
2022/01/22 16:01:32;;;;;;;4.32;2.58;;;4.00;89.50;;;;;;4759442;30;20810;-83
2022/01/22 16:03:58;;;;;;;6.15;2.67;;;4.00;88.90;;;;;;4746334;30;20327;-83
2022/01/22 16:06:36;;;;;;;7.33;3.00;;;3.90;87.40;;;;;;4773856;30;20565;-83
2022/01/22 16:09:13;;;;;;;3.55;1.85;;;3.90;87.30;;;;;;4785050;30;20039;-82
2022/01/22 16:11:40;;;;;;;5.82;2.60;;;3.90;86.60;;;;;;4772632;30;20047;-82
2022/01/22 16:14:08;;;;;;;6.25;2.15;;;3.90;86.60;;;;;;4764352;30;20032;-81
2022/01/22 16:16:37;;;;;;;4.65;2.17;;;3.90;86.70;;;;;;4775459;30;20036;-82
2022/01/22 16:19:03;;;;;;;4.07;2.00;;;3.90;86.70;;;;;;4760058;30;20287;-83
2022/01/22 16:21:30;;;;;;;3.88;2.22;;;3.90;86.70;;;;;;4776097;30;20110;-82
2022/01/22 16:23:56;;;;;;;8.82;2.58;;;3.90;86.20;;;;;;4747801;30;20122;-82
2022/01/22 16:26:22;;;;;;;3.92;2.42;;;3.80;86.70;;;;;;4779265;30;20085;-82
2022/01/22 16:28:48;;;;;;;4.87;2.80;;;3.80;87.00;;;;;;4778997;30;20087;-82
2022/01/22 16:31:14;;;;;;;7.03;2.20;;;3.80;87.10;;;;;;4761868;30;20321;-82
2022/01/22 16:33:40;;;;;;;4.10;2.60;;;3.70;86.90;;;;;;4793078;30;20043;-82
2022/01/22 16:36:06;;;;;;;7.32;2.95;;;3.70;87.30;;;;;;4773034;30;20479;-82
2022/01/22 16:38:32;;;;;;;7.18;3.50;;;3.70;87.60;;;;;;4763995;30;20047;-82
2022/01/22 16:40:59;;;;;;;5.38;3.72;;;3.60;87.30;;;;;;4734722;30;20039;-82
2022/01/22 16:43:30;;;;;;;9.05;2.30;;;3.60;87.60;;;;;;4760936;30;20040;-82
2022/01/22 16:51:20;;;;;;;5.72;2.50;;;3.60;87.80;;;;;;4747102;30;20364;-81
2022/01/22 16:56:46;;;;;;;7.55;2.85;;;3.50;88.00;;;;;;4779984;30;20036;-82
2022/01/22 16:59:21;;;;;;;7.25;3.30;;;3.50;87.80;;;;;;4779848;30;20040;-82
2022/01/22 17:01:51;;;;;;;4.38;2.30;;;3.40;88.30;;;;;;4777452;30;20073;-82
2022/01/22 17:04:22;;;;;;;5.45;3.05;;;3.40;87.90;;;;;;4776818;30;20054;-82
2022/01/22 17:06:50;;;;;;;5.90;2.72;;;3.40;87.70;;;;;;4763281;30;20028;-82
2022/01/22 17:14:27;;;;;;;5.38;2.58;;;3.40;87.00;;;;;;4775980;30;19959;-82
2022/01/22 17:16:54;;;;;;;6.25;3.33;;;3.30;86.80;;;;;;4762336;30;20040;-82
2022/01/22 17:19:23;;;;;;;6.55;2.67;;;3.40;87.20;;;;;;4763540;30;20044;-82
2022/01/22 17:21:49;;;;;;;7.07;2.75;;;3.30;86.40;;;;;;4763138;30;20124;-82
2022/01/22 17:24:14;;;;;;;3.65;2.20;;;3.20;86.40;;;;;;4778212;30;20044;-81
2022/01/22 17:26:40;;;;;;;3.80;2.40;;;3.30;87.10;;;;;;4733851;30;20298;-81
2022/01/22 17:29:06;;;;;;;5.70;3.20;;;3.30;87.50;;;;;;4745652;30;20032;-82
2022/01/22 17:31:32;;;;;;;8.55;3.13;;;3.30;87.30;;;;;;4761917;30;20412;-82
2022/01/22 17:34:00;;;;;;;4.75;2.67;;;3.30;87.80;;;;;;4760181;30;20036;-81
2022/01/22 17:36:26;;;;;;;5.68;3.22;;;3.30;87.30;;;;;;4763359;30;20059;-81
2022/01/22 17:38:51;;;;;;;4.45;2.78;;;3.20;87.10;;;;;;4763100;30;20062;-82
2022/01/22 17:41:17;;;;;;;6.78;3.50;;;3.20;87.50;;;;;;4763373;30;20039;-82
2022/01/22 17:43:44;;;;;;;5.88;2.92;;;3.20;88.00;;;;;;4747830;30;20067;-82
2022/01/22 17:46:10;;;;;;;5.47;3.15;;;3.20;88.40;;;;;;4745183;30;20071;-82
2022/01/22 17:48:39;;;;;;;4.70;2.88;;;3.10;88.50;;;;;;4774962;30;20050;-81
2022/01/22 17:51:05;;;;;;;7.22;3.05;;;3.10;88.50;;;;;;4777720;30;20067;-84
2022/01/22 17:53:33;;;;;;;6.13;2.97;;;3.00;88.40;;;;;;4788784;30;20032;-82
2022/01/22 17:55:59;;;;;;;8.73;3.88;;;3.00;88.50;;;;;;4776980;30;20047;-83
2022/01/22 17:58:26;;;;;;;7.43;3.63;;;3.00;88.90;;;;;;4748052;30;20051;-83
2022/01/22 18:00:54;;;;;;;4.90;2.83;;;3.00;89.00;;;;;;4779112;30;20031;-83
2022/01/22 18:03:23;;;;;;;7.15;3.67;;;3.00;89.20;;;;;;4752267;30;20035;-83
2022/01/22 18:05:50;;;;;;;9.48;3.85;;;2.90;89.20;;;;;;4759868;30;20036;-83
2022/01/22 18:08:16;;;;;;;6.77;4.17;;;2.90;89.60;;;;;;4782744;30;20043;-84
2022/01/22 18:10:44;;;;;;;7.28;4.43;;;2.90;89.90;;;;;;4767420;30;20412;-83
2022/01/22 18:13:11;;;;;;;8.70;4.28;;;2.90;89.90;;;;;;4733234;30;20043;-84
2022/01/22 18:15:37;;;;;;;13.30;4.32;;;2.90;90.00;;;;;;4763891;30;20283;-82
2022/01/22 18:18:04;;;;;;;7.50;4.82;;;2.90;90.20;;;;;;4733586;30;20048;-82
2022/01/22 18:20:30;;;;;;;7.90;4.80;;;2.90;90.30;;;;;;4744072;30;20066;-83
2022/01/22 18:22:57;;;;;;;11.07;4.55;;;2.90;90.30;;;;;;4746667;30;20058;-82
2022/01/22 18:25:23;;;;;;;22.13;11.98;;;2.90;90.40;;;;;;4732302;30;20629;-82
2022/01/22 18:27:49;;;;;;;26.75;14.40;;;2.90;90.30;;;;;;4758981;30;20085;-83
2022/01/22 18:30:15;;;;;;;18.35;10.15;;;2.90;90.40;;;;;;4763171;30;20048;-82
2022/01/22 18:32:41;;;;;;;9.23;4.90;;;2.90;90.30;;;;;;4747071;30;20032;-82
2022/01/22 18:35:07;;;;;;;13.85;7.22;;;2.90;90.40;;;;;;4791512;30;20060;-82
2022/01/22 18:37:33;;;;;;;10.13;5.65;;;2.90;90.50;;;;;;4761320;30;20492;-82
2022/01/22 18:39:59;;;;;;;7.50;3.75;;;2.90;90.50;;;;;;4743070;30;20042;-82
2022/01/22 18:42:28;;;;;;;7.87;4.23;;;2.90;90.60;;;;;;4759085;30;20060;-82
2022/01/22 18:44:55;;;;;;;7.68;3.63;;;2.90;90.50;;;;;;4774709;30;20036;-82
2022/01/22 18:47:22;;;;;;;7.63;4.18;;;3.00;90.60;;;;;;4777363;30;20067;-82
2022/01/22 18:49:49;;;;;;;11.75;4.65;;;2.90;90.50;;;;;;4744138;30;20070;-81